Time;durP1;ratioP1;P1;durP2;ratioP2;P2;SDS_P1;SDS_P2;PMS_P1;PMS_P2;Temp;Humidity;BMP_temperature;BMP_pressure;BME280_temperature;BME280_humidity;BME280_pressure;Samples;Min_cycle;Max_cycle;Signal;HPM_P1;HPM_P2
2022/06/29 00:00:39;;;;;;;1999.90;999.90;;;14.80;99.90;;;;;;5074707;28;20374;-85
2022/06/29 00:03:06;;;;;;;1999.90;999.90;;;14.70;99.90;;;;;;5094289;28;20543;-85
2022/06/29 00:05:32;;;;;;;1999.90;999.90;;;14.60;99.90;;;;;;5080475;28;20027;-85
2022/06/29 00:07:57;;;;;;;1999.90;999.90;;;14.60;99.90;;;;;;5051950;28;20024;-88
2022/06/29 00:10:24;;;;;;;1999.90;999.90;;;14.50;99.90;;;;;;5053002;28;20071;-85
2022/06/29 00:12:50;;;;;;;1999.90;999.90;;;14.40;99.90;;;;;;5089977;28;20032;-85
2022/06/29 00:15:19;;;;;;;1999.90;999.90;;;14.50;99.90;;;;;;5080915;28;20036;-85
2022/06/29 00:17:45;;;;;;;1999.90;999.90;;;14.40;99.90;;;;;;5057973;28;20054;-85
2022/06/29 00:20:15;;;;;;;1999.90;999.90;;;14.40;99.90;;;;;;5049059;28;20507;-86
2022/06/29 00:22:42;;;;;;;1999.90;999.90;;;14.20;99.90;;;;;;5080446;28;20477;-85
2022/06/29 00:25:09;;;;;;;1999.90;999.90;;;14.30;99.90;;;;;;5089826;28;20570;-85
2022/06/29 00:27:35;;;;;;;1999.90;999.90;;;14.30;99.90;;;;;;5069756;28;20385;-85
2022/06/29 00:30:02;;;;;;;1999.90;999.90;;;14.20;99.90;;;;;;5066853;28;20488;-85
2022/06/29 00:32:28;;;;;;;1999.90;999.90;;;14.00;99.90;;;;;;5057085;28;20419;-85
2022/06/29 00:34:54;;;;;;;1999.90;999.90;;;14.00;99.90;;;;;;5068201;28;20027;-84
2022/06/29 00:37:19;;;;;;;1999.90;999.90;;;14.10;99.90;;;;;;5075564;28;20036;-84
2022/06/29 00:39:45;;;;;;;1999.90;999.90;;;14.00;99.90;;;;;;5069845;28;20016;-83
2022/06/29 00:42:11;;;;;;;1999.90;999.90;;;13.90;99.90;;;;;;5069912;28;20023;-84
2022/06/29 00:44:36;;;;;;;1999.90;999.90;;;13.90;99.90;;;;;;5079789;28;20032;-85
2022/06/29 00:47:05;;;;;;;1999.90;999.90;;;13.90;99.90;;;;;;5070561;28;20759;-84
2022/06/29 00:49:32;;;;;;;1999.90;999.90;;;13.70;99.90;;;;;;5059654;28;20028;-84
2022/06/29 00:52:10;;;;;;;1999.90;999.90;;;13.90;99.90;;;;;;5054335;28;20034;-84
2022/06/29 00:54:39;;;;;;;1999.90;999.90;;;14.10;99.90;;;;;;5080882;28;20039;-84
2022/06/29 00:57:23;;;;;;;1999.90;999.90;;;14.10;99.90;;;;;;5081089;28;20107;-84
2022/06/29 00:59:54;;;;;;;1999.90;999.90;;;14.20;99.90;;;;;;5072948;28;20067;-83
2022/06/29 01:02:24;;;;;;;1999.90;999.90;;;14.40;99.90;;;;;;5055536;28;20056;-85
2022/06/29 01:04:50;;;;;;;1999.90;999.90;;;14.30;99.90;;;;;;5070482;28;20074;-85
2022/06/29 01:07:19;;;;;;;1999.90;999.90;;;14.30;99.90;;;;;;5074788;28;20556;-85
2022/06/29 01:09:45;;;;;;;1999.90;999.90;;;14.30;99.90;;;;;;5071733;28;20036;-85
2022/06/29 01:12:12;;;;;;;1999.90;999.90;;;14.40;99.90;;;;;;5049565;28;20372;-86
2022/06/29 01:14:41;;;;;;;1999.90;999.90;;;14.50;99.90;;;;;;5083918;28;20016;-84
2022/06/29 01:17:07;;;;;;;1999.90;999.90;;;14.50;99.90;;;;;;5072226;28;20020;-85
2022/06/29 01:19:33;;;;;;;1999.90;999.90;;;14.70;99.90;;;;;;5055327;28;20019;-85
2022/06/29 01:22:10;;;;;;;1999.90;999.90;;;14.80;99.90;;;;;;5095891;28;20395;-85
2022/06/29 01:24:36;;;;;;;1999.90;999.90;;;14.90;99.90;;;;;;5065787;28;20031;-85
2022/06/29 01:27:02;;;;;;;1999.90;999.90;;;14.90;99.90;;;;;;5086174;28;20073;-85
2022/06/29 01:29:29;;;;;;;1999.90;999.90;;;14.90;99.90;;;;;;5079936;28;20034;-84
2022/06/29 01:31:56;;;;;;;1999.90;999.90;;;14.80;99.90;;;;;;5070024;28;20024;-84
2022/06/29 01:34:23;;;;;;;1999.90;999.90;;;14.90;99.90;;;;;;5076177;28;20032;-85
2022/06/29 01:36:48;;;;;;;1999.90;999.90;;;14.90;99.90;;;;;;5074909;28;20123;-84
2022/06/29 01:39:14;;;;;;;1999.90;999.90;;;15.00;99.90;;;;;;5072366;28;20522;-84
2022/06/29 01:41:40;;;;;;;1999.90;999.90;;;15.10;99.90;;;;;;5074950;28;20544;-86
2022/06/29 01:44:06;;;;;;;1999.90;999.90;;;15.00;99.90;;;;;;5087921;28;20047;-85
2022/06/29 01:46:32;;;;;;;1999.90;999.90;;;14.90;99.90;;;;;;5071367;28;20031;-84
2022/06/29 01:48:58;;;;;;;1999.90;999.90;;;14.80;99.90;;;;;;5067949;28;20070;-84
2022/06/29 01:51:23;;;;;;;1999.90;999.90;;;14.90;99.90;;;;;;5065792;28;20495;-84
2022/06/29 01:53:49;;;;;;;1999.90;999.90;;;14.90;99.90;;;;;;5099156;28;20080;-85
2022/06/29 01:56:15;;;;;;;1999.90;999.90;;;15.00;99.90;;;;;;5079068;28;20548;-85
2022/06/29 01:58:41;;;;;;;1999.90;999.90;;;15.00;99.90;;;;;;5077145;28;20325;-84
2022/06/29 02:01:06;;;;;;;1999.90;999.90;;;15.00;99.90;;;;;;5094762;28;20156;-84
2022/06/29 02:03:32;;;;;;;1999.90;999.90;;;15.00;99.90;;;;;;5091188;28;20039;-84
2022/06/29 02:05:58;;;;;;;1999.90;999.90;;;15.00;99.90;;;;;;5073835;28;20538;-83
2022/06/29 02:08:23;;;;;;;1999.90;999.90;;;14.90;99.90;;;;;;5088398;28;20372;-85
2022/06/29 02:10:49;;;;;;;1999.90;999.90;;;15.00;99.90;;;;;;5053884;28;20042;-84
2022/06/29 02:13:15;;;;;;;1999.90;999.90;;;14.90;99.90;;;;;;5082972;28;20051;-84
2022/06/29 02:15:41;;;;;;;1999.90;999.90;;;15.00;99.90;;;;;;5054046;28;20063;-85
2022/06/29 02:18:06;;;;;;;1999.90;999.90;;;15.00;99.90;;;;;;5084047;28;20043;-84
2022/06/29 02:20:32;;;;;;;1999.90;999.90;;;15.00;99.90;;;;;;5076530;28;20031;-86
2022/06/29 02:22:58;;;;;;;1999.90;999.90;;;15.00;99.90;;;;;;5065668;28;20218;-85
2022/06/29 02:25:23;;;;;;;1999.90;999.90;;;15.00;99.90;;;;;;5064354;28;20032;-84
2022/06/29 02:27:49;;;;;;;1999.90;999.90;;;14.90;99.90;;;;;;5079046;28;20032;-84
2022/06/29 02:30:16;;;;;;;1999.90;999.90;;;14.90;99.90;;;;;;5094290;28;20031;-85
2022/06/29 02:35:28;;;;;;;1999.90;999.90;;;14.70;99.90;;;;;;5094365;28;20140;-85
2022/06/29 02:37:55;;;;;;;1999.90;999.90;;;14.70;99.90;;;;;;5058282;28;20508;-84
2022/06/29 02:40:21;;;;;;;1999.90;999.90;;;14.70;99.90;;;;;;5056680;28;20502;-85
2022/06/29 02:42:46;;;;;;;1999.90;999.90;;;14.70;99.90;;;;;;5095094;28;20066;-85
2022/06/29 02:45:12;;;;;;;1999.90;999.90;;;14.70;99.90;;;;;;5098738;28;20040;-84
2022/06/29 02:47:38;;;;;;;1999.90;999.90;;;14.60;99.90;;;;;;5082859;28;20059;-84
2022/06/29 02:50:04;;;;;;;1999.90;999.90;;;14.70;99.90;;;;;;5091560;28;20012;-85
2022/06/29 02:52:29;;;;;;;1999.90;999.90;;;14.60;99.90;;;;;;5080119;28;20300;-85
2022/06/29 02:54:55;;;;;;;1999.90;999.90;;;14.60;99.90;;;;;;5058579;28;20510;-85
2022/06/29 02:57:20;;;;;;;1999.90;999.90;;;14.60;99.90;;;;;;5056373;28;20474;-85
2022/06/29 02:59:47;;;;;;;1999.90;999.90;;;14.60;99.90;;;;;;5092589;28;20055;-84
2022/06/29 03:02:12;;;;;;;1999.90;999.90;;;14.60;99.90;;;;;;5073996;28;20075;-84
2022/06/29 03:04:38;;;;;;;1999.90;999.90;;;14.60;99.90;;;;;;5067955;28;20067;-86
2022/06/29 03:07:04;;;;;;;1999.90;999.90;;;14.60;99.90;;;;;;5089201;28;20031;-84
2022/06/29 03:09:29;;;;;;;1999.90;999.90;;;14.60;99.90;;;;;;5072457;28;20024;-84
2022/06/29 03:11:55;;;;;;;1999.90;999.90;;;14.50;99.90;;;;;;5092126;28;20072;-84
2022/06/29 03:14:21;;;;;;;1999.90;999.90;;;14.60;99.90;;;;;;5073270;28;20032;-85
2022/06/29 03:16:47;;;;;;;1999.90;999.90;;;14.60;99.90;;;;;;5059717;28;20033;-86
2022/06/29 03:19:12;;;;;;;1999.90;999.90;;;14.60;99.90;;;;;;5095195;28;20571;-85
2022/06/29 03:21:38;;;;;;;1999.90;999.90;;;14.60;99.90;;;;;;5080478;28;20039;-84
2022/06/29 03:24:04;;;;;;;1999.90;999.90;;;14.60;99.90;;;;;;5058115;28;20049;-84
2022/06/29 03:26:32;;;;;;;1999.90;999.90;;;14.60;99.90;;;;;;5076981;28;20035;-85
2022/06/29 03:28:58;;;;;;;1999.90;999.90;;;14.70;99.90;;;;;;5093079;28;20509;-85
2022/06/29 03:31:25;;;;;;;1999.90;999.90;;;14.80;99.90;;;;;;5074550;28;20027;-84
2022/06/29 03:33:51;;;;;;;1999.90;999.90;;;14.80;99.90;;;;;;5075485;28;20122;-85
2022/06/29 03:36:16;;;;;;;1999.90;999.90;;;14.80;99.90;;;;;;5071836;28;20142;-85
2022/06/29 03:38:42;;;;;;;1999.90;999.90;;;14.90;99.90;;;;;;5070063;28;20024;-85
2022/06/29 03:41:07;;;;;;;1999.90;999.90;;;14.90;99.90;;;;;;5074920;28;20027;-86
2022/06/29 03:43:33;;;;;;;1999.90;999.90;;;14.90;99.90;;;;;;5085884;28;20081;-84
2022/06/29 03:45:59;;;;;;;1999.90;999.90;;;15.10;99.90;;;;;;5103760;28;20526;-84
2022/06/29 03:48:24;;;;;;;1999.90;999.90;;;15.20;99.90;;;;;;5081762;28;20031;-84
2022/06/29 03:50:50;;;;;;;1999.90;999.90;;;15.10;99.90;;;;;;5061426;28;20062;-85
2022/06/29 03:53:16;;;;;;;1999.90;999.90;;;15.10;99.90;;;;;;5075598;28;20028;-84
2022/06/29 03:55:42;;;;;;;1999.90;999.90;;;15.10;99.90;;;;;;5059784;28;20023;-84
2022/06/29 03:58:08;;;;;;;1999.90;999.90;;;15.10;99.90;;;;;;5078599;28;20439;-85
2022/06/29 04:00:34;;;;;;;1999.90;999.90;;;15.20;99.90;;;;;;5072508;28;20544;-85
2022/06/29 04:02:59;;;;;;;1999.90;999.90;;;15.10;99.90;;;;;;5072582;28;20104;-83
2022/06/29 04:05:25;;;;;;;1999.90;999.90;;;15.20;99.90;;;;;;5085405;28;20115;-85
2022/06/29 04:07:51;;;;;;;1999.90;999.90;;;15.20;99.90;;;;;;5052188;28;20354;-84
2022/06/29 04:10:16;;;;;;;1999.90;999.90;;;15.30;99.90;;;;;;5065603;28;20115;-84
2022/06/29 04:12:42;;;;;;;1999.90;999.90;;;15.30;99.90;;;;;;5042284;28;20478;-86
2022/06/29 04:15:08;;;;;;;1999.90;999.90;;;15.40;99.90;;;;;;5097712;28;20732;-87
2022/06/29 04:17:34;;;;;;;1999.90;999.90;;;15.60;99.90;;;;;;5083210;28;20073;-87
2022/06/29 04:20:01;;;;;;;1999.90;999.90;;;15.60;99.90;;;;;;5097542;28;20027;-89
2022/06/29 04:22:26;;;;;;;1999.90;999.90;;;15.60;99.90;;;;;;5091588;28;20021;-89
2022/06/29 04:24:52;;;;;;;1999.90;999.90;;;15.60;99.90;;;;;;5065012;28;20071;-88
2022/06/29 04:27:18;;;;;;;1999.90;999.90;;;15.60;99.90;;;;;;5059137;28;20039;-89
2022/06/29 04:29:43;;;;;;;1999.90;999.90;;;15.60;99.90;;;;;;5096174;28;20073;-92
2022/06/29 04:32:10;;;;;;;1999.90;999.90;;;15.80;99.90;;;;;;5075288;28;20080;-88
2022/06/29 04:34:36;;;;;;;1999.90;999.90;;;15.70;99.90;;;;;;5079174;28;20556;-88
2022/06/29 04:37:02;;;;;;;1999.90;999.90;;;15.80;99.90;;;;;;5054760;28;20031;-88
2022/06/29 04:39:27;;;;;;;1999.90;999.90;;;15.80;99.90;;;;;;5035723;28;20036;-89
2022/06/29 04:41:53;;;;;;;1999.90;999.90;;;15.70;99.90;;;;;;5084677;28;20057;-86
2022/06/29 04:44:19;;;;;;;1999.90;999.90;;;15.60;99.90;;;;;;5061468;28;20024;-87
2022/06/29 04:46:45;;;;;;;1999.90;999.90;;;15.50;99.90;;;;;;5095232;28;20395;-87
2022/06/29 04:49:11;;;;;;;1999.90;999.90;;;15.70;99.90;;;;;;5074879;28;20084;-87
2022/06/29 04:51:37;;;;;;;1999.90;999.90;;;15.90;99.90;;;;;;5089953;28;20024;-86
2022/06/29 04:54:04;;;;;;;1999.90;999.90;;;16.00;99.90;;;;;;5087783;28;20501;-86
2022/06/29 04:56:32;;;;;;;1999.90;999.90;;;16.10;99.90;;;;;;5068865;28;20519;-86
2022/06/29 04:58:58;;;;;;;1999.90;999.90;;;16.10;99.90;;;;;;5074430;28;20029;-85
2022/06/29 05:01:26;;;;;;;1999.90;999.90;;;16.10;99.90;;;;;;5069780;28;20562;-88
2022/06/29 05:03:52;;;;;;;1999.90;999.90;;;16.00;99.90;;;;;;5068589;28;20040;-93
2022/06/29 05:06:20;;;;;;;1999.90;999.90;;;16.10;99.90;;;;;;5070813;28;20746;-87
2022/06/29 05:08:47;;;;;;;1999.90;999.90;;;16.10;99.90;;;;;;5084009;28;20020;-84
2022/06/29 05:11:14;;;;;;;1999.90;999.90;;;16.10;99.90;;;;;;5074918;28;20035;-84
2022/06/29 05:13:41;;;;;;;1999.90;999.90;;;16.10;99.90;;;;;;5078286;28;20035;-85
2022/06/29 05:16:06;;;;;;;1999.90;999.90;;;16.10;99.90;;;;;;5071560;28;20025;-91
2022/06/29 05:18:33;;;;;;;1999.90;999.90;;;16.00;99.90;;;;;;5078528;28;20031;-90
2022/06/29 05:20:59;;;;;;;1999.90;999.90;;;16.00;99.90;;;;;;5091919;28;20028;-87
2022/06/29 05:23:25;;;;;;;1999.90;999.90;;;15.90;99.90;;;;;;5090141;28;20553;-86
2022/06/29 05:25:52;;;;;;;1999.90;999.90;;;16.10;99.90;;;;;;5096403;28;20107;-87
2022/06/29 05:28:18;;;;;;;1999.90;999.90;;;16.10;99.90;;;;;;5076560;28;20032;-87
2022/06/29 05:30:43;;;;;;;1999.90;999.90;;;16.10;99.90;;;;;;5097367;28;20028;-85
2022/06/29 05:33:09;;;;;;;1999.90;999.90;;;16.20;99.90;;;;;;5094670;28;20486;-86
2022/06/29 05:35:35;;;;;;;1999.90;999.90;;;16.30;99.90;;;;;;5096447;28;20104;-86
2022/06/29 05:38:01;;;;;;;1999.90;999.90;;;16.30;99.90;;;;;;5091232;28;20142;-84
2022/06/29 05:40:28;;;;;;;1999.90;999.90;;;16.30;99.90;;;;;;5076059;28;20024;-86
2022/06/29 05:42:54;;;;;;;1999.90;999.90;;;16.40;99.90;;;;;;5064740;28;21942;-86
2022/06/29 05:45:19;;;;;;;1999.90;999.90;;;16.50;99.90;;;;;;5108469;28;20054;-86
2022/06/29 05:47:45;;;;;;;1999.90;999.90;;;16.50;99.90;;;;;;5098262;28;20039;-85
2022/06/29 05:50:11;;;;;;;1999.90;999.90;;;16.40;99.90;;;;;;5103639;28;20030;-88
2022/06/29 05:52:37;;;;;;;1999.90;999.90;;;16.40;99.90;;;;;;5075235;28;20024;-84
2022/06/29 05:55:04;;;;;;;1999.90;999.90;;;16.50;99.90;;;;;;5096566;28;20506;-82
2022/06/29 05:57:30;;;;;;;1999.90;999.90;;;16.50;99.90;;;;;;5094748;28;20047;-80
2022/06/29 05:59:56;;;;;;;1999.90;999.90;;;16.50;99.90;;;;;;5098570;28;20061;-81
2022/06/29 06:02:23;;;;;;;1999.90;999.90;;;16.60;99.90;;;;;;5087795;28;20052;-80
2022/06/29 06:04:48;;;;;;;1999.90;999.90;;;16.70;99.90;;;;;;5073315;28;20024;-79
2022/06/29 06:07:14;;;;;;;1999.90;999.90;;;16.70;99.90;;;;;;5092187;28;20032;-79
2022/06/29 06:09:39;;;;;;;1999.90;999.90;;;16.70;99.90;;;;;;5063383;28;20036;-80
2022/06/29 06:12:05;;;;;;;1999.90;999.90;;;16.80;99.90;;;;;;5094242;28;20024;-79
2022/06/29 06:14:31;;;;;;;1999.90;999.90;;;16.90;99.90;;;;;;5104037;28;20032;-80
2022/06/29 06:16:57;;;;;;;1999.90;999.90;;;17.00;99.90;;;;;;5099864;28;20317;-80
2022/06/29 06:19:22;;;;;;;1999.90;999.90;;;16.90;99.90;;;;;;5102886;28;20040;-80
2022/06/29 06:21:48;;;;;;;1999.90;999.90;;;16.90;99.90;;;;;;5075774;28;20036;-79
2022/06/29 06:24:13;;;;;;;1999.90;999.90;;;16.90;99.90;;;;;;5098802;28;20039;-78
2022/06/29 06:26:39;;;;;;;1999.90;999.90;;;16.90;99.90;;;;;;5095867;28;20073;-79
2022/06/29 06:29:05;;;;;;;1999.90;999.90;;;16.90;99.90;;;;;;5094203;28;20264;-79
2022/06/29 06:31:31;;;;;;;1999.90;999.90;;;16.90;99.90;;;;;;5076505;28;20047;-79
2022/06/29 06:33:57;;;;;;;1999.90;999.90;;;17.00;99.90;;;;;;5076492;28;20032;-79
2022/06/29 06:36:22;;;;;;;1999.90;999.90;;;17.20;99.90;;;;;;5089013;28;20038;-79
2022/06/29 06:38:48;;;;;;;1999.90;999.90;;;17.20;99.90;;;;;;5076677;28;20744;-80
2022/06/29 06:41:22;;;;;;;1999.90;999.90;;;17.50;99.90;;;;;;5098281;28;20489;-79
2022/06/29 06:43:59;;;;;;;1999.90;999.90;;;17.60;99.90;;;;;;5070481;28;20087;-79
2022/06/29 06:46:25;;;;;;;1999.90;999.90;;;17.70;99.90;;;;;;5097008;28;20134;-79
2022/06/29 06:48:52;;;;;;;1999.90;999.90;;;17.70;99.90;;;;;;5080101;28;20027;-80
2022/06/29 06:51:20;;;;;;;1999.90;999.90;;;17.60;99.90;;;;;;5098571;28;20052;-79
2022/06/29 06:53:46;;;;;;;1999.90;999.90;;;17.80;99.90;;;;;;5074312;28;20031;-79
2022/06/29 06:56:12;;;;;;;1999.90;999.90;;;17.70;99.90;;;;;;5096835;28;20039;-79
2022/06/29 06:58:38;;;;;;;1999.90;999.90;;;17.70;99.90;;;;;;5087887;28;20024;-79
2022/06/29 07:01:05;;;;;;;1999.90;999.90;;;17.60;99.90;;;;;;5099143;28;20329;-79
2022/06/29 07:03:32;;;;;;;1999.90;999.90;;;17.60;99.90;;;;;;5059231;28;20044;-79
2022/06/29 07:06:00;;;;;;;1999.90;999.90;;;17.60;99.90;;;;;;5071064;28;20019;-79
2022/06/29 07:08:27;;;;;;;1999.90;999.90;;;17.60;99.90;;;;;;5091231;28;20046;-80
2022/06/29 07:10:53;;;;;;;1999.90;999.90;;;17.60;99.90;;;;;;5088464;28;20186;-80
2022/06/29 07:13:18;;;;;;;1999.90;999.90;;;17.70;99.90;;;;;;5069601;28;20031;-79
2022/06/29 07:15:44;;;;;;;1999.90;999.90;;;17.80;99.90;;;;;;5081848;28;20035;-79
2022/06/29 07:18:10;;;;;;;1999.90;999.90;;;17.90;99.90;;;;;;5063783;28;20081;-79
2022/06/29 07:20:35;;;;;;;1999.90;999.90;;;17.90;99.90;;;;;;5098997;28;20032;-80
2022/06/29 07:23:01;;;;;;;1999.90;999.90;;;17.90;99.90;;;;;;5098172;28;20623;-80
2022/06/29 07:25:27;;;;;;;1999.90;999.90;;;18.00;99.90;;;;;;5076630;28;20509;-79
2022/06/29 07:27:52;;;;;;;1999.90;999.90;;;18.10;99.90;;;;;;5091812;28;20020;-80
2022/06/29 07:30:18;;;;;;;1999.90;999.90;;;18.20;99.90;;;;;;5085685;28;20038;-79
2022/06/29 07:32:44;;;;;;;1999.90;999.90;;;18.30;99.90;;;;;;5064685;28;20424;-81
2022/06/29 07:35:10;;;;;;;1999.90;999.90;;;18.50;99.90;;;;;;5067296;28;20654;-81
2022/06/29 07:37:35;;;;;;;1999.90;999.90;;;18.80;99.90;;;;;;5066384;28;20494;-80
2022/06/29 07:40:01;;;;;;;1999.90;999.90;;;19.00;99.90;;;;;;5087476;28;20032;-80
2022/06/29 07:42:27;;;;;;;1999.90;999.90;;;19.20;99.90;;;;;;5101217;28;20372;-81
2022/06/29 07:44:52;;;;;;;1999.90;999.90;;;19.60;99.90;;;;;;5079567;28;20083;-82
2022/06/29 07:47:18;;;;;;;1999.90;999.90;;;19.90;99.90;;;;;;5093812;28;20067;-81
2022/06/29 07:49:43;;;;;;;1999.90;999.90;;;19.90;99.90;;;;;;5080860;28;20034;-81
2022/06/29 07:52:09;;;;;;;1999.90;999.90;;;20.30;99.90;;;;;;5080207;28;20024;-81
2022/06/29 07:54:35;;;;;;;1999.90;999.90;;;20.70;99.90;;;;;;5061208;28;20038;-78
2022/06/29 07:57:00;;;;;;;1999.90;999.90;;;20.80;99.90;;;;;;5092867;28;20563;-80
2022/06/29 07:59:26;;;;;;;1999.90;999.90;;;20.90;99.90;;;;;;5094551;28;20040;-80
2022/06/29 08:01:52;;;;;;;1999.90;999.90;;;20.80;99.90;;;;;;5090677;28;20447;-81
2022/06/29 08:04:17;;;;;;;1999.90;999.90;;;20.80;99.90;;;;;;5091032;28;20114;-81
2022/06/29 08:06:43;;;;;;;1999.90;999.90;;;20.70;99.90;;;;;;5050111;28;20024;-81
2022/06/29 08:09:09;;;;;;;1999.90;999.90;;;20.80;99.90;;;;;;5082589;28;20521;-82
2022/06/29 08:11:34;;;;;;;1999.90;999.90;;;21.00;99.90;;;;;;5096349;28;20365;-81
2022/06/29 08:14:00;;;;;;;1999.90;999.90;;;21.10;99.90;;;;;;5080993;28;20431;-82
2022/06/29 08:16:26;;;;;;;1999.90;999.90;;;20.80;99.60;;;;;;5101754;28;20512;-80
2022/06/29 08:18:52;;;;;;;1999.90;999.90;;;20.90;99.90;;;;;;5078124;28;20032;-81
2022/06/29 08:21:17;;;;;;;1999.90;999.90;;;21.40;97.90;;;;;;5077801;28;20027;-80
2022/06/29 08:23:43;;;;;;;1999.90;999.90;;;21.50;99.30;;;;;;5077060;28;20517;-81
2022/06/29 08:26:08;;;;;;;1999.90;999.90;;;21.50;99.30;;;;;;5074698;28;20031;-80
2022/06/29 08:28:34;;;;;;;1999.90;999.90;;;21.50;93.30;;;;;;5074899;28;20031;-80
2022/06/29 08:31:00;;;;;;;1999.90;999.90;;;21.30;92.80;;;;;;5072286;28;20105;-82
2022/06/29 08:33:26;;;;;;;1999.90;999.90;;;21.70;92.90;;;;;;5089546;28;20036;-81
2022/06/29 08:35:51;;;;;;;1999.90;999.90;;;21.90;93.00;;;;;;5069653;28;20034;-82
2022/06/29 08:38:17;;;;;;;1999.90;999.90;;;22.40;93.90;;;;;;5085644;28;20062;-81
2022/06/29 08:40:45;;;;;;;1999.90;999.90;;;22.10;91.00;;;;;;5071181;28;20036;-80
2022/06/29 08:43:12;;;;;;;1999.90;999.90;;;22.30;90.00;;;;;;5092125;28;20050;-81
2022/06/29 08:45:46;;;;;;;1999.90;999.90;;;22.00;92.30;;;;;;5090562;28;20020;-81
2022/06/29 08:48:13;;;;;;;1999.90;999.90;;;22.70;89.10;;;;;;5076877;28;20039;-81
2022/06/29 08:50:41;;;;;;;1999.90;999.90;;;22.80;91.80;;;;;;5060702;28;20495;-80
2022/06/29 08:53:08;;;;;;;1999.90;772.97;;;23.00;86.30;;;;;;5073764;28;20066;-80
2022/06/29 08:55:41;;;;;;;1999.90;999.90;;;22.80;83.50;;;;;;5091040;28;20058;-80
2022/06/29 08:58:07;;;;;;;1999.90;999.90;;;22.70;81.30;;;;;;5075038;28;20104;-80
2022/06/29 09:00:36;;;;;;;1741.40;680.75;;;22.40;84.20;;;;;;5090637;28;20376;-80
2022/06/29 09:03:04;;;;;;;1999.90;999.90;;;22.40;85.20;;;;;;5051773;28;20048;-81
2022/06/29 09:05:31;;;;;;;1999.90;999.90;;;22.70;86.70;;;;;;5089396;28;20032;-81
2022/06/29 09:07:56;;;;;;;1999.90;999.90;;;22.70;83.70;;;;;;5088565;28;20360;-81
2022/06/29 09:10:23;;;;;;;1999.90;765.35;;;23.70;82.30;;;;;;5062960;28;20092;-80
2022/06/29 09:12:52;;;;;;;1999.90;999.90;;;23.80;77.10;;;;;;5088826;28;20690;-81
2022/06/29 09:15:47;;;;;;;1999.90;755.83;;;23.50;75.60;;;;;;5099293;28;20053;-80
2022/06/29 09:18:32;;;;;;;1999.90;999.90;;;23.40;75.50;;;;;;5097780;28;20039;-80
2022/06/29 09:21:00;;;;;;;1999.90;999.90;;;22.80;79.10;;;;;;5081480;28;20023;-79
2022/06/29 09:23:27;;;;;;;1999.90;999.90;;;23.10;78.10;;;;;;5077066;28;20033;-79
2022/06/29 09:25:54;;;;;;;1999.90;999.90;;;23.40;77.80;;;;;;5074125;28;20020;-80
2022/06/29 09:28:31;;;;;;;1999.90;999.90;;;23.20;76.10;;;;;;5068397;28;20139;-80
2022/06/29 09:30:59;;;;;;;1999.90;999.90;;;23.20;85.40;;;;;;5075967;28;20062;-80
2022/06/29 09:33:30;;;;;;;1999.90;999.90;;;23.20;76.80;;;;;;5092690;28;20032;-80
2022/06/29 09:36:10;;;;;;;1999.90;999.90;;;23.20;76.10;;;;;;5053612;28;20036;-80
2022/06/29 09:38:37;;;;;;;1999.90;999.90;;;22.80;83.90;;;;;;5088531;28;20063;-80
2022/06/29 09:41:14;;;;;;;1999.90;999.90;;;22.90;79.10;;;;;;5100274;28;20027;-81
2022/06/29 09:43:41;;;;;;;1999.90;999.90;;;22.70;84.10;;;;;;5092010;28;20544;-80
2022/06/29 09:46:32;;;;;;;1999.90;999.90;;;22.50;87.40;;;;;;5094169;28;20032;-81
2022/06/29 09:48:58;;;;;;;1999.90;999.90;;;23.50;82.40;;;;;;5094579;28;20031;-81
2022/06/29 09:51:33;;;;;;;1999.90;999.90;;;23.90;74.10;;;;;;5065111;28;20033;-81
2022/06/29 09:54:10;;;;;;;1999.90;950.97;;;24.40;69.40;;;;;;5064743;28;20036;-82
2022/06/29 10:10:43;;;;;;;1999.90;988.47;;;24.60;72.80;;;;;;5073184;28;20043;-80
2022/06/29 10:13:39;;;;;;;1999.90;999.90;;;25.20;64.30;;;;;;5077275;28;20020;-81
2022/06/29 10:16:08;;;;;;;1999.90;999.90;;;25.30;63.20;;;;;;5059619;28;20040;-82
2022/06/29 10:18:52;;;;;;;1999.90;908.75;;;25.60;60.00;;;;;;5056747;28;20029;-81
2022/06/29 10:21:22;;;;;;;1999.90;999.90;;;25.20;60.50;;;;;;5037603;28;20108;-81
2022/06/29 10:23:56;;;;;;;1999.90;999.90;;;25.30;60.60;;;;;;5034738;28;20025;-82
2022/06/29 10:26:30;;;;;;;1999.90;999.90;;;25.50;58.20;;;;;;5034942;28;20027;-81
2022/06/29 10:29:05;;;;;;;1999.90;950.38;;;25.20;60.40;;;;;;5047052;28;20035;-81
2022/06/29 10:31:50;;;;;;;1999.90;999.90;;;25.20;64.40;;;;;;5047874;28;20037;-81
2022/06/29 10:34:30;;;;;;;1999.90;974.05;;;25.10;61.00;;;;;;5050469;28;20020;-81
2022/06/29 10:37:02;;;;;;;1999.90;999.90;;;25.30;64.50;;;;;;5054694;28;20162;-81
2022/06/29 10:39:43;;;;;;;1999.90;999.90;;;25.20;64.70;;;;;;5053940;28;20029;-82
2022/06/29 10:45:49;;;;;;;1999.90;999.90;;;25.40;63.20;;;;;;5054375;28;20089;-81
2022/06/29 10:48:16;;;;;;;1999.90;999.90;;;25.90;61.80;;;;;;5052429;28;20040;-81
2022/06/29 10:50:43;;;;;;;1999.90;999.90;;;25.90;60.60;;;;;;5055172;28;20518;-81
2022/06/29 10:53:11;;;;;;;1999.90;999.90;;;26.00;62.30;;;;;;5054255;28;20512;-81
2022/06/29 10:55:42;;;;;;;1999.90;999.90;;;25.70;60.90;;;;;;5054976;28;20032;-86
2022/06/29 10:58:09;;;;;;;1999.90;974.72;;;25.40;62.40;;;;;;5052372;28;20028;-86
2022/06/29 11:00:43;;;;;;;1999.90;973.90;;;25.10;61.40;;;;;;5055382;28;20528;-86
2022/06/29 11:03:17;;;;;;;1999.90;999.90;;;25.50;59.60;;;;;;5052938;28;20415;-88
2022/06/29 11:14:04;;;;;;;1999.90;999.90;;;28.10;49.90;;;;;;5105438;28;20134;-80
2022/06/29 11:16:35;;;;;;;1999.90;999.90;;;28.00;49.30;;;;;;5085338;28;20032;-80
2022/06/29 11:19:05;;;;;;;1999.90;999.90;;;28.50;51.30;;;;;;5077619;28;20060;-79
2022/06/29 11:21:32;;;;;;;1999.90;999.90;;;28.10;55.00;;;;;;5082080;28;20024;-81
2022/06/29 11:24:04;;;;;;;1999.90;999.90;;;27.60;57.00;;;;;;5074297;28;20811;-81
2022/06/29 11:26:34;;;;;;;1999.90;999.90;;;27.70;47.90;;;;;;5076729;28;20180;-81
2022/06/29 11:29:01;;;;;;;1999.90;999.90;;;27.70;59.40;;;;;;5072646;28;20035;-84
2022/06/29 11:31:27;;;;;;;1999.90;999.90;;;28.50;56.10;;;;;;5091204;28;20088;-81
2022/06/29 11:33:53;;;;;;;1999.90;999.90;;;27.40;51.50;;;;;;5067587;28;20032;-81
2022/06/29 11:36:21;;;;;;;1999.90;999.90;;;26.80;52.80;;;;;;5059887;28;20047;-81
2022/06/29 11:38:49;;;;;;;1999.90;999.90;;;26.40;56.10;;;;;;5092087;28;20360;-83
2022/06/29 11:41:27;;;;;;;1999.90;999.90;;;26.70;55.50;;;;;;5077219;28;20031;-81
2022/06/29 11:44:03;;;;;;;1999.90;999.90;;;27.60;51.90;;;;;;5078137;28;20513;-80
2022/06/29 11:46:31;;;;;;;1999.90;999.90;;;28.30;46.70;;;;;;5077867;28;20031;-82
2022/06/29 11:51:52;;;;;;;1999.90;999.90;;;27.80;49.40;;;;;;5079834;28;20038;-80
2022/06/29 11:54:33;;;;;;;1999.90;999.90;;;27.30;52.80;;;;;;5094897;28;20028;-89
2022/06/29 11:56:59;;;;;;;1999.90;571.72;;;27.30;53.50;;;;;;5097589;28;20027;-82
2022/06/29 11:59:25;;;;;;;1999.90;999.90;;;26.80;53.20;;;;;;5078113;28;20094;-80
2022/06/29 12:01:52;;;;;;;1999.90;999.90;;;27.30;53.20;;;;;;5054514;28;20123;-81
2022/06/29 12:04:32;;;;;;;1999.90;999.90;;;27.80;51.90;;;;;;5063333;28;20077;-81
2022/06/29 12:07:12;;;;;;;1999.90;697.88;;;27.30;53.80;;;;;;5065507;28;20030;-80
2022/06/29 12:09:41;;;;;;;1999.90;999.90;;;28.00;50.80;;;;;;5084468;28;20078;-82
2022/06/29 12:12:08;;;;;;;1999.90;999.90;;;27.50;47.80;;;;;;5072711;28;20038;-82
2022/06/29 12:14:36;;;;;;;1999.90;999.90;;;27.60;50.90;;;;;;5093015;28;20085;-81
2022/06/29 12:17:02;;;;;;;1999.90;999.90;;;27.50;52.40;;;;;;5079807;28;20068;-81
2022/06/29 12:19:28;;;;;;;1999.90;999.90;;;27.70;47.40;;;;;;5074379;28;20059;-82
2022/06/29 12:21:54;;;;;;;1999.90;999.90;;;28.20;46.20;;;;;;5088049;28;20032;-81
2022/06/29 12:24:20;;;;;;;1999.90;999.90;;;27.80;51.30;;;;;;5092805;28;20036;-81
2022/06/29 12:26:46;;;;;;;1999.90;999.90;;;27.30;48.90;;;;;;5087688;28;20111;-81
2022/06/29 12:29:13;;;;;;;1999.90;999.90;;;28.60;47.80;;;;;;5092135;28;20114;-81
2022/06/29 12:31:44;;;;;;;1999.90;999.90;;;28.50;54.00;;;;;;5095597;28;20035;-81